KBIX

Details ICAO KBIX (BIX)
Name KEESLER AFB
Region United States
Timezone America/Chicago (UTC-5.0)
Plans Departing 9
Arriving 12
Stats Elevation 33 ft / 10 m (AMSL)
Location 30.410425° -88.924432°
Runways 1
Magnetic Variation 1.699° W
Sunrise 2018-05-24 10:58:13 UTC / 2018-05-24 05:58:13 Local
Sunset 2018-05-25 00:49:46 UTC / 2018-05-24 19:49:46 Local
Advertisement - Login to hide

Runways

ID Width Length Bearing (true) Bearing (mag) Surface Threshold Offset Overrun Length
03 150 ft / 46 m 7,642 ft / 2,329 m 35.31° 37.01° Asphalt 1,599 ft / 487 m 0 ft / 0 m
21 150 ft / 46 m 7,642 ft / 2,329 m 215.32° 217.02° Asphalt 1,000 ft / 305 m 0 ft / 0 m

Approach Navaids

Runway Type Ident Frequency Range Bearing (true) Bearing (mag) Slope Elevation
21 Localiser IBIX 109.70 MHz 18 nm / 33 km 215.30° 217.00° - 33 ft / 10 m (AMSL)
21 Glidescope IBIX 109.70 MHz 10 nm / 19 km 215.31° 217.01° 3.00° 33 ft / 10 m (AMSL)

Map

Weather


0- 5 10 15 20 25 30 35+ Temperature / ° C

Clouds and Precipitation
Forecast for 2018-05-24 18:00 UTC. Updated 36 minutes ago

Ground ~20,000 ft ~40,000 ft Winds

METAR

KBIX 241739Z AUTO 17009KT 10SM TS BKN026 BKN047 30/23 A3007 RMK AO2 TSB39 SLP185

TAF

Not found

Frequencies

Clearance 121.80 MHz CLNC DEL
Tower 120.75 MHz TWR
Approach 127.50 MHz GULFPORT APP/DEP
Ground 121.80 MHz GND
Approach 124.60 MHz GULFPORT APP/DEP
Warning: Do not use this data for real-world aviation or navigation. No guarantee of current accuracy is given.